Time;durP1;ratioP1;P1;durP2;ratioP2;P2;SDS_P1;SDS_P2;PMS_P1;PMS_P2;Temp;Humidity;BMP_temperature;BMP_pressure;BME280_temperature;BME280_humidity;BME280_pressure;Samples;Min_cycle;Max_cycle;Signal;HPM_P1;HPM_P2
2023/07/12 00:02:15;;;;;;;8.80;2.77;;;;;;;;;;5132320;27;20288;-74
2023/07/12 00:04:43;;;;;;;8.07;2.80;;;;;;;;;;5149270;27;20739;-74
2023/07/12 00:07:13;;;;;;;9.20;2.60;;;;;;;;;;5139144;27;20203;-75
2023/07/12 00:09:40;;;;;;;6.10;2.83;;;;;;;;;;5154012;27;20279;-74
2023/07/12 00:12:08;;;;;;;8.67;2.50;;;;;;;;;;5153487;27;20231;-75
2023/07/12 00:14:35;;;;;;;5.70;2.50;;;;;;;;;;5153555;27;21076;-73
2023/07/12 00:17:03;;;;;;;8.33;2.97;;;;;;;;;;5134986;27;20725;-74
2023/07/12 00:19:30;;;;;;;5.93;2.90;;;;;;;;;;5132678;27;20306;-74
2023/07/12 00:21:58;;;;;;;5.30;2.63;;;;;;;;;;5150578;27;20748;-74
2023/07/12 00:24:25;;;;;;;10.13;3.07;;;;;;;;;;5153512;27;20271;-74
2023/07/12 00:26:53;;;;;;;7.63;2.80;;;;;;;;;;5153269;27;20192;-74
2023/07/12 00:29:20;;;;;;;6.50;2.53;;;;;;;;;;5136919;27;20200;-74
2023/07/12 00:31:47;;;;;;;8.70;2.50;;;;;;;;;;5132834;27;20287;-75
2023/07/12 00:34:14;;;;;;;5.40;2.70;;;;;;;;;;5132285;27;20227;-74
2023/07/12 00:36:41;;;;;;;8.03;2.73;;;;;;;;;;5132104;27;20221;-73
2023/07/12 00:39:10;;;;;;;6.63;2.83;;;;;;;;;;5150448;27;20331;-75
2023/07/12 00:41:58;;;;;;;6.77;2.87;;;;;;;;;;5144026;27;20285;-74
2023/07/12 00:44:27;;;;;;;5.73;2.47;;;;;;;;;;5142495;27;20216;-74
2023/07/12 00:46:55;;;;;;;6.03;3.23;;;;;;;;;;5133218;27;20748;-75
2023/07/12 00:49:22;;;;;;;4.80;2.80;;;;;;;;;;5132111;27;20228;-74
2023/07/12 00:51:52;;;;;;;5.03;3.00;;;;;;;;;;5131986;27;20316;-74
2023/07/12 00:54:21;;;;;;;6.37;3.10;;;;;;;;;;5132143;27;20288;-74
2023/07/12 00:56:48;;;;;;;6.70;3.30;;;;;;;;;;5131883;28;20662;-75
2023/07/12 00:59:19;;;;;;;7.53;3.50;;;;;;;;;;5131828;28;20816;-74
2023/07/12 01:01:47;;;;;;;9.17;3.93;;;;;;;;;;5132316;28;20288;-74
2023/07/12 01:04:17;;;;;;;6.37;3.60;;;;;;;;;;5131744;28;20602;-74
2023/07/12 01:06:44;;;;;;;6.67;3.50;;;;;;;;;;5131838;28;20197;-75
2023/07/12 01:09:13;;;;;;;7.53;3.37;;;;;;;;;;5123740;28;20291;-73
2023/07/12 01:11:42;;;;;;;7.90;4.20;;;;;;;;;;5115724;28;20234;-74
2023/07/12 01:14:11;;;;;;;8.97;3.80;;;;;;;;;;5111618;28;20202;-74
2023/07/12 01:16:39;;;;;;;7.93;3.83;;;;;;;;;;5126329;28;20579;-74
2023/07/12 01:19:06;;;;;;;7.43;3.70;;;;;;;;;;5131905;28;20319;-74
2023/07/12 01:21:35;;;;;;;7.20;3.70;;;;;;;;;;5132102;27;20232;-74
2023/07/12 01:24:02;;;;;;;9.23;3.47;;;;;;;;;;5131787;28;20288;-74
2023/07/12 01:26:33;;;;;;;7.33;3.63;;;;;;;;;;5132055;28;20228;-74
2023/07/12 01:29:01;;;;;;;9.73;3.80;;;;;;;;;;5131991;27;20228;-74
2023/07/12 01:31:29;;;;;;;8.03;3.63;;;;;;;;;;5131799;28;20292;-74
2023/07/12 01:33:57;;;;;;;10.60;4.13;;;;;;;;;;5131394;27;20700;-74
2023/07/12 01:36:25;;;;;;;7.90;3.83;;;;;;;;;;5131757;28;20288;-74
2023/07/12 01:38:54;;;;;;;8.03;4.53;;;;;;;;;;5131910;28;20304;-75
2023/07/12 01:41:21;;;;;;;8.57;4.10;;;;;;;;;;5131861;28;20291;-73
2023/07/12 01:43:48;;;;;;;8.37;3.93;;;;;;;;;;5131712;27;20280;-74
2023/07/12 01:46:16;;;;;;;10.37;3.43;;;;;;;;;;5131830;28;20193;-74
2023/07/12 01:48:43;;;;;;;7.30;3.87;;;;;;;;;;5131157;28;20289;-75
2023/07/12 01:51:11;;;;;;;10.33;4.33;;;;;;;;;;5131445;28;20316;-74
2023/07/12 01:53:38;;;;;;;10.30;4.03;;;;;;;;;;5131437;28;20734;-74
2023/07/12 01:56:07;;;;;;;8.67;4.10;;;;;;;;;;5131771;28;20228;-73
2023/07/12 01:58:34;;;;;;;9.03;3.80;;;;;;;;;;5132022;27;20221;-75
2023/07/12 02:01:02;;;;;;;12.97;4.50;;;;;;;;;;5132481;27;20288;-74
2023/07/12 02:03:29;;;;;;;10.27;4.47;;;;;;;;;;5134923;27;20666;-74
2023/07/12 02:05:57;;;;;;;13.93;4.37;;;;;;;;;;5135243;27;20197;-74
2023/07/12 02:08:24;;;;;;;9.53;3.70;;;;;;;;;;5135300;27;20197;-74
2023/07/12 02:10:52;;;;;;;10.10;3.90;;;;;;;;;;5135445;27;20289;-74
2023/07/12 02:13:21;;;;;;;8.13;4.23;;;;;;;;;;5135027;27;20622;-74
2023/07/12 02:15:48;;;;;;;9.87;4.10;;;;;;;;;;5134365;27;20201;-75
2023/07/12 02:18:16;;;;;;;10.73;3.83;;;;;;;;;;5134813;27;20287;-74
2023/07/12 02:20:43;;;;;;;14.17;4.07;;;;;;;;;;5134922;27;20193;-75
2023/07/12 02:23:10;;;;;;;15.63;4.40;;;;;;;;;;5134663;27;20764;-74
2023/07/12 02:25:37;;;;;;;8.17;4.10;;;;;;;;;;5134867;27;20304;-74
2023/07/12 02:28:05;;;;;;;9.43;3.60;;;;;;;;;;5134623;27;20280;-74
2023/07/12 02:30:33;;;;;;;12.93;4.07;;;;;;;;;;5134513;27;20251;-74
2023/07/12 02:33:01;;;;;;;8.87;4.33;;;;;;;;;;5135188;27;20288;-74
2023/07/12 02:35:29;;;;;;;13.10;4.10;;;;;;;;;;5134841;27;20556;-74
2023/07/12 02:37:56;;;;;;;12.70;4.60;;;;;;;;;;5134565;27;20189;-74
2023/07/12 02:40:24;;;;;;;10.37;3.80;;;;;;;;;;5134431;27;20818;-73
2023/07/12 02:42:51;;;;;;;8.67;3.80;;;;;;;;;;5134677;27;20346;-74
2023/07/12 02:45:18;;;;;;;9.43;4.40;;;;;;;;;;5134325;27;20281;-74
2023/07/12 02:47:47;;;;;;;10.30;4.00;;;;;;;;;;5134737;27;20673;-73
2023/07/12 02:50:14;;;;;;;11.30;4.13;;;;;;;;;;5134290;27;20204;-74
2023/07/12 02:52:42;;;;;;;10.50;3.97;;;;;;;;;;5134049;27;20618;-74
2023/07/12 02:55:10;;;;;;;10.97;4.33;;;;;;;;;;5134111;27;20197;-74
2023/07/12 02:57:37;;;;;;;10.00;4.07;;;;;;;;;;5133962;27;20673;-74
2023/07/12 03:00:04;;;;;;;16.67;4.27;;;;;;;;;;5133689;27;20327;-74
2023/07/12 03:02:31;;;;;;;11.13;4.47;;;;;;;;;;5134187;27;20228;-74
2023/07/12 03:05:00;;;;;;;11.50;4.83;;;;;;;;;;5133903;27;20201;-75
2023/07/12 03:07:27;;;;;;;9.50;4.13;;;;;;;;;;5133834;27;20693;-74
2023/07/12 03:09:57;;;;;;;12.77;4.50;;;;;;;;;;5133831;27;20962;-74
2023/07/12 03:12:24;;;;;;;14.53;4.60;;;;;;;;;;5133735;27;20196;-74
2023/07/12 03:14:52;;;;;;;11.80;4.37;;;;;;;;;;5134035;27;20288;-75
2023/07/12 03:17:19;;;;;;;11.53;4.70;;;;;;;;;;5133969;27;20611;-75
2023/07/12 03:19:46;;;;;;;13.07;4.83;;;;;;;;;;5133813;27;20319;-73
2023/07/12 03:22:15;;;;;;;10.60;4.43;;;;;;;;;;5133425;27;20284;-73
2023/07/12 03:24:42;;;;;;;12.57;4.67;;;;;;;;;;5133883;27;20561;-74
2023/07/12 03:27:09;;;;;;;12.13;4.63;;;;;;;;;;5133682;27;20681;-74
2023/07/12 03:29:37;;;;;;;10.53;4.60;;;;;;;;;;5133518;27;20283;-74
2023/07/12 03:32:05;;;;;;;12.10;4.77;;;;;;;;;;5133904;27;20276;-74
2023/07/12 03:34:32;;;;;;;15.07;5.40;;;;;;;;;;5133722;27;20245;-74
2023/07/12 03:37:00;;;;;;;9.17;4.57;;;;;;;;;;5133864;27;20224;-74
2023/07/12 03:39:28;;;;;;;8.30;4.77;;;;;;;;;;5133342;27;20221;-74
2023/07/12 03:41:55;;;;;;;10.13;4.57;;;;;;;;;;5133342;27;20657;-74
2023/07/12 03:44:23;;;;;;;9.57;4.70;;;;;;;;;;5133232;27;20658;-73
2023/07/12 03:46:50;;;;;;;14.50;5.10;;;;;;;;;;5133298;27;20276;-76
2023/07/12 03:49:17;;;;;;;8.60;4.67;;;;;;;;;;5133477;27;20291;-75
2023/07/12 03:51:45;;;;;;;14.23;4.83;;;;;;;;;;5133065;27;20233;-74
2023/07/12 03:54:12;;;;;;;9.47;4.80;;;;;;;;;;5133212;27;20271;-75
2023/07/12 03:56:40;;;;;;;12.17;4.70;;;;;;;;;;5133061;27;20284;-75
2023/07/12 03:59:08;;;;;;;10.40;5.20;;;;;;;;;;5133049;27;20316;-75
2023/07/12 04:01:36;;;;;;;12.90;5.00;;;;;;;;;;5133261;27;20204;-76
2023/07/12 04:04:03;;;;;;;12.10;5.20;;;;;;;;;;5133016;27;20200;-75
2023/07/12 04:06:30;;;;;;;13.40;5.10;;;;;;;;;;5132944;27;20284;-76
2023/07/12 04:08:57;;;;;;;12.30;5.30;;;;;;;;;;5132864;27;20618;-75
2023/07/12 04:11:26;;;;;;;10.07;5.00;;;;;;;;;;5132868;27;20221;-75
2023/07/12 04:13:55;;;;;;;12.87;5.67;;;;;;;;;;5132575;27;20207;-76
2023/07/12 04:16:24;;;;;;;9.63;5.63;;;;;;;;;;5132707;27;20296;-75
2023/07/12 04:18:51;;;;;;;15.17;5.73;;;;;;;;;;5132677;27;20228;-76
2023/07/12 04:21:19;;;;;;;17.87;6.07;;;;;;;;;;5132393;27;20290;-75
2023/07/12 04:23:47;;;;;;;17.33;6.27;;;;;;;;;;5132105;27;20236;-76
2023/07/12 04:26:17;;;;;;;13.60;6.50;;;;;;;;;;5132202;27;20647;-75
2023/07/12 04:28:48;;;;;;;19.40;6.50;;;;;;;;;;5132661;27;20193;-75
2023/07/12 04:31:18;;;;;;;12.93;6.77;;;;;;;;;;5133172;27;20199;-76
2023/07/12 04:33:45;;;;;;;13.77;6.90;;;;;;;;;;5132459;27;20284;-75
2023/07/12 04:36:14;;;;;;;16.53;7.00;;;;;;;;;;5132246;27;20285;-77
2023/07/12 04:38:41;;;;;;;16.03;6.63;;;;;;;;;;5133025;27;20291;-75
2023/07/12 04:41:08;;;;;;;19.00;6.80;;;;;;;;;;5131867;27;20320;-76
2023/07/12 04:43:36;;;;;;;15.33;6.80;;;;;;;;;;5132334;27;20203;-75
2023/07/12 04:46:03;;;;;;;13.73;6.23;;;;;;;;;;5132363;27;20305;-76
2023/07/12 04:48:33;;;;;;;12.20;6.13;;;;;;;;;;5132092;27;20201;-76
2023/07/12 04:51:00;;;;;;;11.23;6.10;;;;;;;;;;5132134;27;20233;-76
2023/07/12 04:53:27;;;;;;;14.07;6.27;;;;;;;;;;5132225;27;20231;-75
2023/07/12 04:55:55;;;;;;;16.23;5.90;;;;;;;;;;5132037;27;20566;-75
2023/07/12 04:58:22;;;;;;;11.43;6.50;;;;;;;;;;5132257;27;20199;-76
2023/07/12 05:00:49;;;;;;;12.20;6.87;;;;;;;;;;5131834;28;20772;-75
2023/07/12 05:03:17;;;;;;;17.70;7.50;;;;;;;;;;5132067;28;20292;-77
2023/07/12 05:05:45;;;;;;;16.07;7.23;;;;;;;;;;5132235;27;20284;-75
2023/07/12 05:08:12;;;;;;;13.87;7.33;;;;;;;;;;5132396;27;20563;-76
2023/07/12 05:10:40;;;;;;;14.37;7.27;;;;;;;;;;5131829;28;20347;-76
2023/07/12 05:13:07;;;;;;;14.83;7.20;;;;;;;;;;5132104;28;20201;-76
2023/07/12 05:15:34;;;;;;;11.87;7.07;;;;;;;;;;5131622;27;20228;-75
2023/07/12 05:18:01;;;;;;;45.57;7.83;;;;;;;;;;5131979;28;20720;-75
2023/07/12 05:20:28;;;;;;;25.97;7.17;;;;;;;;;;5131976;28;20233;-75
2023/07/12 05:22:57;;;;;;;11.73;6.67;;;;;;;;;;5132166;28;20296;-76
2023/07/12 05:25:24;;;;;;;34.60;7.20;;;;;;;;;;5131930;27;20284;-75
2023/07/12 05:27:51;;;;;;;9.37;6.43;;;;;;;;;;5132069;28;20279;-75
2023/07/12 05:30:18;;;;;;;14.20;7.10;;;;;;;;;;5131592;28;20284;-75
2023/07/12 05:32:46;;;;;;;6.80;5.93;;;;;;;;;;5131599;28;20732;-75
2023/07/12 05:35:13;;;;;;;23.47;6.00;;;;;;;;;;5132292;27;20685;-76
2023/07/12 05:37:40;;;;;;;10.90;6.13;;;;;;;;;;5135389;27;20221;-75
2023/07/12 05:40:10;;;;;;;22.87;6.33;;;;;;;;;;5135274;27;20217;-76
2023/07/12 05:42:40;;;;;;;25.37;6.23;;;;;;;;;;5135710;27;20215;-76
2023/07/12 05:45:08;;;;;;;8.63;6.00;;;;;;;;;;5140623;27;20241;-75
2023/07/12 05:47:35;;;;;;;9.20;6.47;;;;;;;;;;5140535;27;20200;-74
2023/07/12 05:50:02;;;;;;;8.53;6.23;;;;;;;;;;5153805;27;20284;-74
2023/07/12 05:52:29;;;;;;;14.87;6.80;;;;;;;;;;5153458;27;20200;-74
2023/07/12 05:54:57;;;;;;;7.80;6.37;;;;;;;;;;5135042;27;20229;-75
2023/07/12 05:57:25;;;;;;;9.13;6.03;;;;;;;;;;5134924;27;20301;-74
2023/07/12 05:59:52;;;;;;;9.50;6.40;;;;;;;;;;5135112;27;20227;-75
2023/07/12 06:02:19;;;;;;;13.50;6.90;;;;;;;;;;5149486;27;20284;-74
2023/07/12 06:04:47;;;;;;;12.07;6.57;;;;;;;;;;5155859;27;20287;-74
2023/07/12 06:07:14;;;;;;;9.60;7.27;;;;;;;;;;5156352;27;20673;-74
2023/07/12 06:09:41;;;;;;;13.30;8.00;;;;;;;;;;5155517;27;20755;-74
2023/07/12 06:12:08;;;;;;;9.87;7.57;;;;;;;;;;5155597;27;20283;-74
2023/07/12 06:14:37;;;;;;;15.37;7.60;;;;;;;;;;5155788;27;20192;-74
2023/07/12 06:17:05;;;;;;;13.27;7.37;;;;;;;;;;5136892;27;20197;-74
2023/07/12 06:19:32;;;;;;;11.90;6.67;;;;;;;;;;5150096;27;20287;-74
2023/07/12 06:21:59;;;;;;;9.83;6.90;;;;;;;;;;5155507;27;20212;-74
2023/07/12 06:24:27;;;;;;;10.40;6.80;;;;;;;;;;5155595;27;20219;-74
2023/07/12 06:26:54;;;;;;;11.90;6.80;;;;;;;;;;5155703;27;20243;-74
2023/07/12 06:29:21;;;;;;;10.23;6.73;;;;;;;;;;5155144;27;20228;-74
2023/07/12 06:31:50;;;;;;;11.47;7.13;;;;;;;;;;5155757;27;20206;-74
2023/07/12 06:34:18;;;;;;;8.87;6.67;;;;;;;;;;5155118;27;20193;-74
2023/07/12 06:36:45;;;;;;;11.00;6.90;;;;;;;;;;5155528;27;20246;-74
2023/07/12 06:39:12;;;;;;;13.17;7.50;;;;;;;;;;5155623;27;20275;-74
2023/07/12 06:41:39;;;;;;;16.80;6.60;;;;;;;;;;5155457;27;20225;-74
2023/07/12 06:44:06;;;;;;;11.90;6.37;;;;;;;;;;5155512;27;20275;-74
2023/07/12 06:46:33;;;;;;;13.30;6.57;;;;;;;;;;5155521;27;20275;-75
2023/07/12 06:49:02;;;;;;;13.57;5.63;;;;;;;;;;5154806;27;20565;-74
2023/07/12 06:51:29;;;;;;;9.50;5.70;;;;;;;;;;5154556;27;20278;-74
2023/07/12 06:53:56;;;;;;;11.87;6.40;;;;;;;;;;5137734;27;20232;-74
2023/07/12 06:56:24;;;;;;;14.17;6.47;;;;;;;;;;5134671;27;20288;-75
2023/07/12 06:58:51;;;;;;;14.60;5.70;;;;;;;;;;5134650;27;20287;-74
2023/07/12 07:01:18;;;;;;;9.23;5.83;;;;;;;;;;5134449;27;20260;-75
2023/07/12 07:03:45;;;;;;;7.80;5.57;;;;;;;;;;5134169;27;20284;-75
2023/07/12 07:06:14;;;;;;;16.95;5.90;;;;;;;;;;5133016;27;20300;-73
2023/07/12 07:08:41;;;;;;;9.10;4.93;;;;;;;;;;5133793;27;20725;-74
2023/07/12 07:11:08;;;;;;;12.38;5.55;;;;;;;;;;5134595;27;20299;-74
2023/07/12 07:13:35;;;;;;;10.73;4.90;;;;;;;;;;5133910;27;20284;-75
2023/07/12 07:16:03;;;;;;;12.13;4.30;;;;;;;;;;5133974;27;20224;-75
2023/07/12 07:18:30;;;;;;;8.80;4.35;;;;;;;;;;5134371;27;20250;-75
2023/07/12 07:20:59;;;;;;;10.35;4.70;;;;;;;;;;5133195;27;20316;-75
2023/07/12 07:23:28;;;;;;;8.32;4.55;;;;;;;;;;5133572;27;20193;-75
2023/07/12 07:25:55;;;;;;;9.27;4.20;;;;;;;;;;5134125;27;20284;-75
2023/07/12 07:28:22;;;;;;;8.20;3.70;;;;;;;;;;5133702;27;20189;-75
2023/07/12 07:30:54;;;;;;;8.00;4.03;;;;;;;;;;5133670;27;20232;-75
2023/07/12 07:33:21;;;;;;;10.60;4.28;;;;;;;;;;5133580;27;20197;-75
2023/07/12 07:35:48;;;;;;;7.05;3.45;;;;;;;;;;5133221;27;20201;-74
2023/07/12 07:38:15;;;;;;;6.82;3.10;;;;;;;;;;5132963;27;20217;-75
2023/07/12 07:40:44;;;;;;;7.65;3.05;;;;;;;;;;5133442;27;20311;-75
2023/07/12 07:43:11;;;;;;;8.35;2.83;;;;;;;;;;5132844;27;20283;-74
2023/07/12 07:45:38;;;;;;;6.75;3.10;;;;;;;;;;5132586;27;20296;-74
2023/07/12 07:48:05;;;;;;;6.70;3.08;;;;;;;;;;5133511;27;20195;-74
2023/07/12 07:50:33;;;;;;;7.25;2.80;;;;;;;;;;5132498;27;20268;-75
2023/07/12 07:53:00;;;;;;;6.80;2.80;;;;;;;;;;5142198;27;20279;-74
2023/07/12 07:55:27;;;;;;;4.97;2.42;;;;;;;;;;5153382;27;20728;-75
2023/07/12 07:57:56;;;;;;;6.15;2.30;;;;;;;;;;5153899;27;20236;-74
2023/07/12 08:00:23;;;;;;;6.97;2.17;;;;;;;;;;5153455;27;20276;-74
2023/07/12 08:02:50;;;;;;;6.85;2.67;;;;;;;;;;5153726;27;20202;-75
2023/07/12 08:05:18;;;;;;;7.20;2.85;;;;;;;;;;5153685;27;20195;-75
2023/07/12 08:07:46;;;;;;;4.80;1.88;;;;;;;;;;5153492;27;20197;-75
2023/07/12 08:10:15;;;;;;;6.40;2.20;;;;;;;;;;5152816;27;20652;-74
2023/07/12 08:12:43;;;;;;;5.38;1.90;;;;;;;;;;5147374;27;20280;-75
2023/07/12 08:15:12;;;;;;;6.07;2.08;;;;;;;;;;5132150;27;20310;-75
2023/07/12 08:17:39;;;;;;;7.95;2.30;;;;;;;;;;5132089;27;20288;-75
2023/07/12 08:20:07;;;;;;;8.18;2.10;;;;;;;;;;5132062;27;20197;-75
2023/07/12 08:22:34;;;;;;;5.15;1.80;;;;;;;;;;5132433;27;20788;-75
2023/07/12 08:25:02;;;;;;;5.20;1.45;;;;;;;;;;5132367;27;20580;-75
2023/07/12 08:27:30;;;;;;;7.75;1.50;;;;;;;;;;5132283;27;20695;-76
2023/07/12 08:29:58;;;;;;;6.00;1.63;;;;;;;;;;5132460;27;20689;-77
2023/07/12 08:32:28;;;;;;;6.32;1.50;;;;;;;;;;5132819;27;20201;-75
2023/07/12 08:34:55;;;;;;;4.90;1.75;;;;;;;;;;5145334;27;20204;-75
2023/07/12 08:37:22;;;;;;;3.17;1.38;;;;;;;;;;5132244;27;20708;-75
2023/07/12 08:39:49;;;;;;;4.88;1.65;;;;;;;;;;5132363;27;20287;-76
2023/07/12 08:42:20;;;;;;;4.00;1.48;;;;;;;;;;5153319;27;20226;-75
2023/07/12 08:44:47;;;;;;;4.30;1.33;;;;;;;;;;5152940;27;20226;-76
2023/07/12 08:47:17;;;;;;;3.60;1.30;;;;;;;;;;5137549;27;20205;-77
2023/07/12 08:49:46;;;;;;;4.13;1.20;;;;;;;;;;5132069;27;20196;-75
2023/07/12 08:52:17;;;;;;;6.15;1.38;;;;;;;;;;5130771;27;20278;-75
2023/07/12 08:54:44;;;;;;;4.13;1.48;;;;;;;;;;5128684;27;20300;-77
2023/07/12 08:57:18;;;;;;;3.97;1.40;;;;;;;;;;5131761;28;20193;-76
2023/07/12 08:59:48;;;;;;;3.10;1.30;;;;;;;;;;5128999;28;20614;-76
2023/07/12 09:02:19;;;;;;;4.07;1.50;;;;;;;;;;5130503;28;20763;-76
2023/07/12 09:04:48;;;;;;;5.82;1.65;;;;;;;;;;5128691;28;20196;-75
2023/07/12 09:07:22;;;;;;;3.83;1.40;;;;;;;;;;5130981;28;20276;-76
2023/07/12 09:09:49;;;;;;;6.43;2.10;;;;;;;;;;5129716;27;20193;-75
2023/07/12 09:12:25;;;;;;;4.55;1.67;;;;;;;;;;5136327;27;20811;-76
2023/07/12 09:14:53;;;;;;;3.78;1.40;;;;;;;;;;5137829;27;20275;-77
2023/07/12 09:17:23;;;;;;;7.18;1.70;;;;;;;;;;5137171;27;20203;-75
2023/07/12 09:19:52;;;;;;;3.42;1.40;;;;;;;;;;5137119;27;20323;-76
2023/07/12 09:22:20;;;;;;;6.50;1.45;;;;;;;;;;5136594;27;20917;-76
2023/07/12 09:24:51;;;;;;;5.22;1.33;;;;;;;;;;5137261;27;20207;-76
2023/07/12 09:27:20;;;;;;;5.13;1.25;;;;;;;;;;5135064;27;20280;-76
2023/07/12 09:29:47;;;;;;;4.45;1.20;;;;;;;;;;5137410;27;20201;-75
2023/07/12 09:32:17;;;;;;;5.38;1.17;;;;;;;;;;5133413;27;20204;-75
2023/07/12 09:34:45;;;;;;;5.35;1.30;;;;;;;;;;5136342;27;20566;-75
2023/07/12 09:37:15;;;;;;;4.30;1.30;;;;;;;;;;5137148;27;20226;-75
2023/07/12 09:39:43;;;;;;;4.45;1.48;;;;;;;;;;5143276;27;20283;-74
2023/07/12 09:42:16;;;;;;;4.05;1.15;;;;;;;;;;5137561;27;20243;-74
2023/07/12 09:44:44;;;;;;;4.10;1.10;;;;;;;;;;5137901;27;20280;-76
2023/07/12 09:47:17;;;;;;;4.95;1.27;;;;;;;;;;5137453;27;20193;-75
2023/07/12 09:49:46;;;;;;;3.22;1.10;;;;;;;;;;5141042;27;20283;-75
2023/07/12 09:52:17;;;;;;;4.25;1.25;;;;;;;;;;5152662;27;20312;-75
2023/07/12 09:54:47;;;;;;;4.95;1.40;;;;;;;;;;5147019;27;20228;-75
2023/07/12 09:57:15;;;;;;;2.35;0.95;;;;;;;;;;5140309;27;20280;-77
2023/07/12 09:59:51;;;;;;;3.10;1.60;;;;;;;;;;5151741;27;21015;-74
2023/07/12 10:02:27;;;;;;;2.80;1.35;;;;;;;;;;5143498;27;20224;-74
2023/07/12 10:04:56;;;;;;;3.33;1.48;;;;;;;;;;5141179;27;20197;-75
2023/07/12 10:07:29;;;;;;;2.78;1.20;;;;;;;;;;5135889;27;20284;-75
2023/07/12 10:09:58;;;;;;;2.17;0.98;;;;;;;;;;5133973;27;20620;-75
2023/07/12 10:12:28;;;;;;;3.30;1.30;;;;;;;;;;5135829;27;20217;-74
2023/07/12 10:14:56;;;;;;;2.50;1.35;;;;;;;;;;5131842;27;20284;-75
2023/07/12 10:17:28;;;;;;;3.20;1.30;;;;;;;;;;5135071;27;20272;-75
2023/07/12 10:19:56;;;;;;;3.28;1.20;;;;;;;;;;5132357;27;20228;-77
2023/07/12 10:22:26;;;;;;;2.17;1.08;;;;;;;;;;5133595;27;20769;-75
2023/07/12 10:24:55;;;;;;;6.82;1.40;;;;;;;;;;5134546;27;20216;-76
2023/07/12 10:27:24;;;;;;;2.17;1.17;;;;;;;;;;5134676;27;20198;-77
2023/07/12 10:29:54;;;;;;;2.33;1.17;;;;;;;;;;5131587;27;20695;-77
2023/07/12 10:32:23;;;;;;;2.90;1.17;;;;;;;;;;5134215;27;20661;-76
2023/07/12 10:34:52;;;;;;;3.58;0.95;;;;;;;;;;5133520;27;20190;-75
2023/07/12 10:37:23;;;;;;;4.57;1.20;;;;;;;;;;5134570;27;20639;-75
2023/07/12 10:39:50;;;;;;;5.30;1.65;;;;;;;;;;5134136;27;20261;-75
2023/07/12 10:42:23;;;;;;;2.42;1.30;;;;;;;;;;5133889;27;20328;-74
2023/07/12 10:44:52;;;;;;;3.22;1.30;;;;;;;;;;5134296;27;20769;-74
2023/07/12 10:47:20;;;;;;;3.45;1.10;;;;;;;;;;5134641;27;20196;-74
2023/07/12 10:49:53;;;;;;;3.22;1.20;;;;;;;;;;5120015;27;20729;-75
2023/07/12 10:52:27;;;;;;;2.50;1.20;;;;;;;;;;5113658;28;20229;-77
2023/07/12 10:55:21;;;;;;;5.53;1.50;;;;;;;;;;5113783;28;20190;-76
2023/07/12 10:57:51;;;;;;;4.13;1.23;;;;;;;;;;5070834;28;20192;-75
2023/07/12 11:00:23;;;;;;;2.25;1.20;;;;;;;;;;5070843;28;20199;-77
2023/07/12 11:02:59;;;;;;;3.63;1.30;;;;;;;;;;5070416;28;20317;-76
2023/07/12 11:05:38;;;;;;;2.65;0.85;;;;;;;;;;5070445;28;20282;-76
2023/07/12 11:08:06;;;;;;;3.25;1.20;;;;;;;;;;5070327;28;20198;-76
2023/07/12 11:10:37;;;;;;;2.28;1.10;;;;;;;;;;5070166;28;20215;-76
2023/07/12 11:13:12;;;;;;;3.47;1.20;;;;;;;;;;5069707;28;20394;-76
2023/07/12 11:15:50;;;;;;;3.17;1.30;;;;;;;;;;5069901;28;20199;-74
2023/07/12 11:18:24;;;;;;;3.85;1.10;;;;;;;;;;5068369;28;20206;-76
2023/07/12 11:20:59;;;;;;;4.25;1.10;;;;;;;;;;5067818;28;20240;-76
2023/07/12 11:23:27;;;;;;;2.63;1.20;;;;;;;;;;5069913;28;20648;-75
2023/07/12 11:25:57;;;;;;;2.17;1.10;;;;;;;;;;5070433;28;20294;-76
2023/07/12 11:28:45;;;;;;;3.15;1.10;;;;;;;;;;5069659;28;20197;-76
2023/07/12 11:31:19;;;;;;;3.35;1.02;;;;;;;;;;5065253;28;20291;-76
2023/07/12 11:33:48;;;;;;;2.80;1.20;;;;;;;;;;5104483;27;20292;-74
2023/07/12 11:36:19;;;;;;;6.43;1.15;;;;;;;;;;5133359;27;20203;-76
2023/07/12 11:38:48;;;;;;;3.25;1.00;;;;;;;;;;5133530;27;20192;-76
2023/07/12 11:41:16;;;;;;;1.50;0.90;;;;;;;;;;5132443;27;20217;-76
2023/07/12 11:43:44;;;;;;;2.63;0.93;;;;;;;;;;5133382;27;20272;-76
2023/07/12 11:46:13;;;;;;;1.98;1.00;;;;;;;;;;5132963;27;20220;-76
2023/07/12 11:48:43;;;;;;;3.03;0.95;;;;;;;;;;5130836;27;20213;-77
2023/07/12 11:51:18;;;;;;;2.33;0.90;;;;;;;;;;5133668;27;21069;-77
2023/07/12 11:53:51;;;;;;;5.28;1.10;;;;;;;;;;5135257;27;20244;-74
2023/07/12 11:56:19;;;;;;;2.38;1.00;;;;;;;;;;5134426;27;20197;-77
2023/07/12 11:58:46;;;;;;;3.10;1.05;;;;;;;;;;5135177;27;20197;-77
2023/07/12 12:01:15;;;;;;;2.47;0.90;;;;;;;;;;5134770;27;20239;-77
2023/07/12 12:03:44;;;;;;;2.22;1.10;;;;;;;;;;5134535;27;20252;-77
2023/07/12 12:06:12;;;;;;;4.70;1.20;;;;;;;;;;5134715;27;20727;-75
2023/07/12 12:08:39;;;;;;;2.55;1.15;;;;;;;;;;5134754;27;20190;-77
2023/07/12 12:11:10;;;;;;;4.38;1.27;;;;;;;;;;5134524;27;20189;-77
2023/07/12 12:13:41;;;;;;;3.05;1.23;;;;;;;;;;5134524;27;20201;-77
2023/07/12 12:16:17;;;;;;;2.38;1.00;;;;;;;;;;5134546;27;20284;-77
2023/07/12 12:18:52;;;;;;;2.38;1.20;;;;;;;;;;5135359;27;20220;-76
2023/07/12 12:21:19;;;;;;;2.42;1.13;;;;;;;;;;5133791;27;20198;-77
2023/07/12 12:23:51;;;;;;;2.17;0.98;;;;;;;;;;5134679;27;20822;-77
2023/07/12 12:26:21;;;;;;;1.80;1.10;;;;;;;;;;5135495;27;20232;-77
2023/07/12 12:28:52;;;;;;;1.83;0.90;;;;;;;;;;5135292;27;20193;-75
2023/07/12 12:31:21;;;;;;;3.67;1.48;;;;;;;;;;5132777;27;20673;-75
2023/07/12 12:33:49;;;;;;;2.72;1.10;;;;;;;;;;5133399;27;20299;-76
2023/07/12 12:36:24;;;;;;;2.08;1.10;;;;;;;;;;5132816;27;20225;-76
2023/07/12 12:38:59;;;;;;;2.05;1.00;;;;;;;;;;5134563;27;20450;-76
2023/07/12 12:41:32;;;;;;;4.38;1.10;;;;;;;;;;5134431;27;20224;-77
2023/07/12 12:44:00;;;;;;;2.65;1.10;;;;;;;;;;5134505;27;20284;-76
2023/07/12 12:46:27;;;;;;;2.15;1.13;;;;;;;;;;5132063;27;20748;-76
2023/07/12 12:48:54;;;;;;;2.67;1.20;;;;;;;;;;5133462;27;20296;-77
2023/07/12 12:51:23;;;;;;;3.80;1.08;;;;;;;;;;5134335;27;20276;-77
2023/07/12 12:53:51;;;;;;;1.88;0.90;;;;;;;;;;5133892;27;20213;-76
2023/07/12 12:56:19;;;;;;;4.70;1.15;;;;;;;;;;5133887;27;20284;-76
2023/07/12 12:58:46;;;;;;;4.18;1.10;;;;;;;;;;5134266;27;20228;-76
2023/07/12 13:01:14;;;;;;;3.08;1.13;;;;;;;;;;5134798;27;20337;-77
2023/07/12 13:03:41;;;;;;;4.90;1.10;;;;;;;;;;5135175;27;20224;-76
2023/07/12 13:06:11;;;;;;;1.67;0.90;;;;;;;;;;5135154;27;20577;-77
2023/07/12 13:08:39;;;;;;;3.92;1.10;;;;;;;;;;5133023;27;20288;-76
2023/07/12 13:11:08;;;;;;;2.50;1.20;;;;;;;;;;5133076;27;20197;-77
2023/07/12 13:13:36;;;;;;;3.25;1.15;;;;;;;;;;5132471;27;20753;-76
2023/07/12 13:16:03;;;;;;;1.33;0.88;;;;;;;;;;5132670;27;20228;-77
2023/07/12 13:18:30;;;;;;;2.53;1.10;;;;;;;;;;5133161;27;20239;-76
2023/07/12 13:20:57;;;;;;;3.22;0.90;;;;;;;;;;5134084;27;20633;-76
2023/07/12 13:23:26;;;;;;;1.92;1.02;;;;;;;;;;5132004;27;20252;-76
2023/07/12 13:25:53;;;;;;;1.75;0.95;;;;;;;;;;5134047;27;20204;-76
2023/07/12 13:28:22;;;;;;;2.47;1.02;;;;;;;;;;5134547;27;20218;-74
2023/07/12 13:30:49;;;;;;;1.63;0.88;;;;;;;;;;5133357;27;20700;-74
2023/07/12 13:33:18;;;;;;;2.33;1.00;;;;;;;;;;5140720;27;20207;-73
2023/07/12 13:35:47;;;;;;;1.40;0.70;;;;;;;;;;5143723;27;20234;-74
2023/07/12 13:38:14;;;;;;;2.83;1.02;;;;;;;;;;5153046;27;20687;-75
2023/07/12 13:40:42;;;;;;;2.45;0.90;;;;;;;;;;5134819;27;20254;-77
2023/07/12 13:43:12;;;;;;;3.80;1.08;;;;;;;;;;5134222;28;20287;-77
2023/07/12 13:45:41;;;;;;;2.67;0.90;;;;;;;;;;5134103;28;20212;-75
2023/07/12 13:48:12;;;;;;;3.88;1.27;;;;;;;;;;5134398;28;20217;-77
2023/07/12 13:50:39;;;;;;;2.20;0.90;;;;;;;;;;5134070;28;20239;-76
2023/07/12 13:53:06;;;;;;;3.22;0.88;;;;;;;;;;5133274;28;20216;-76
2023/07/12 13:55:34;;;;;;;2.67;1.00;;;;;;;;;;5133003;28;20280;-77
2023/07/12 13:58:01;;;;;;;2.50;1.00;;;;;;;;;;5136120;27;20272;-78
2023/07/12 14:00:28;;;;;;;2.60;0.82;;;;;;;;;;5136529;27;20296;-77
2023/07/12 14:03:01;;;;;;;2.35;0.95;;;;;;;;;;5141237;27;20225;-78
2023/07/12 14:05:29;;;;;;;2.08;1.10;;;;;;;;;;5135257;27;20193;-77
2023/07/12 14:07:59;;;;;;;3.00;1.30;;;;;;;;;;5135233;27;20794;-78
2023/07/12 14:10:26;;;;;;;2.10;1.02;;;;;;;;;;5146575;27;20249;-78
2023/07/12 14:12:54;;;;;;;3.72;1.10;;;;;;;;;;5139916;27;20204;-77
2023/07/12 14:15:22;;;;;;;2.40;0.95;;;;;;;;;;5150577;27;20213;-77
2023/07/12 14:17:49;;;;;;;1.02;0.93;;;;;;;;;;5135530;27;20228;-78
2023/07/12 14:20:19;;;;;;;3.63;0.90;;;;;;;;;;5135370;27;20228;-77
2023/07/12 14:22:46;;;;;;;1.33;0.88;;;;;;;;;;5134785;27;20262;-78
2023/07/12 14:25:17;;;;;;;1.88;0.95;;;;;;;;;;5135111;27;20750;-77
2023/07/12 14:27:44;;;;;;;2.38;1.00;;;;;;;;;;5135171;27;20217;-77
2023/07/12 14:30:12;;;;;;;2.72;0.90;;;;;;;;;;5135331;27;20713;-78
2023/07/12 14:32:41;;;;;;;2.88;0.85;;;;;;;;;;5135240;27;20703;-77
2023/07/12 14:35:13;;;;;;;1.95;0.93;;;;;;;;;;5134632;27;20189;-77
2023/07/12 14:37:42;;;;;;;2.65;1.00;;;;;;;;;;5134989;27;20224;-77
2023/07/12 14:40:10;;;;;;;2.63;0.98;;;;;;;;;;5134849;27;20287;-77
2023/07/12 14:42:37;;;;;;;1.75;0.90;;;;;;;;;;5134905;27;20217;-77
2023/07/12 14:45:04;;;;;;;2.13;1.02;;;;;;;;;;5134588;27;20777;-77
2023/07/12 14:47:31;;;;;;;1.83;0.75;;;;;;;;;;5134586;27;20288;-77